Time,TemperatureF,DewpointF,PressureIn,WindDirection,WindDirectionDegrees,WindSpeedMPH,WindSpeedGustMPH,Humidity,HourlyPrecipIn,Conditions,Clouds,dailyrainin,SolarRadiationWatts/m^2,SoftwareType,DateUTC
2013-06-30 00:00:00,77.0,31.0,30.09,ENE,72,5.0,19.0,19,-99.99,,,-99.99,0.140000,,2013-06-30 06:00:00,
2013-06-30 00:53:00,77.0,31.0,30.09,ENE,72,5.0,19.0,19,-99.99,,,-99.99,0.140000,,2013-06-30 06:53:00,
2013-06-30 02:00:00,73.0,34.0,30.10,NNE,12,6.0,9.0,24,-99.99,,,-99.99,0.000000,,2013-06-30 08:00:00,
2013-06-30 03:00:00,68.0,35.0,30.09,NE,44,5.0,12.0,30,-99.99,,,-99.99,0.000000,,2013-06-30 09:00:00,
2013-06-30 04:00:00,65.0,36.0,30.09,NNE,17,7.0,9.0,34,-99.99,,,-99.99,0.000000,,2013-06-30 10:00:00,
2013-06-30 05:00:00,64.0,36.0,30.09,NNE,17,7.0,9.0,35,-99.99,,,-99.99,0.000000,,2013-06-30 11:00:00,
2013-06-30 06:00:00,65.0,36.0,30.11,NNE,18,7.0,9.0,35,-99.99,,,-99.99,0.880000,,2013-06-30 12:00:00,
2013-06-30 07:00:00,67.0,38.0,30.12,NNE,21,6.0,8.0,34,-99.99,,,-99.99,51.810001,,2013-06-30 13:00:00,
2013-06-30 08:00:00,75.0,38.0,30.13,ENE,59,5.0,7.0,26,-99.99,,,-99.99,253.899994,,2013-06-30 14:00:00,
2013-06-30 08:52:00,75.0,38.0,30.13,ENE,59,5.0,7.0,26,-99.99,,,-99.99,253.899994,,2013-06-30 14:52:00,
2013-06-30 09:00:00,76.0,38.0,30.13,ESE,120,5.0,9.0,26,-99.99,,,-99.99,320.899994,,2013-06-30 15:00:00,
2013-06-30 09:53:00,76.0,38.0,30.13,ESE,120,5.0,9.0,26,-99.99,,,-99.99,320.899994,,2013-06-30 15:53:00,
2013-06-30 10:00:00,79.0,37.0,30.12,South,179,4.0,10.0,22,-99.99,,,-99.99,521.500000,,2013-06-30 16:00:00,
2013-06-30 11:00:00,84.0,34.0,30.11,SW,220,3.0,7.0,17,-99.99,,,-99.99,610.299988,,2013-06-30 17:00:00,
2013-06-30 12:00:00,86.0,33.0,30.10,WSW,244,8.0,9.0,15,-99.99,,,-99.99,985.000000,,2013-06-30 18:00:00,
2013-06-30 13:00:00,88.0,33.0,30.08,West,259,12.0,17.0,14,-99.99,,,-99.99,932.000000,,2013-06-30 19:00:00,
2013-06-30 14:00:00,89.0,30.0,30.07,WNW,286,16.0,20.0,12,-99.99,,,-99.99,996.000000,,2013-06-30 20:00:00,
2013-06-30 15:00:00,89.0,32.0,30.05,WNW,291,12.0,24.0,13,-99.99,,,-99.99,1041.000000,,2013-06-30 21:00:00,
2013-06-30 15:53:00,89.0,32.0,30.05,WNW,291,12.0,24.0,13,-99.99,,,-99.99,1041.000000,,2013-06-30 21:53:00,
2013-06-30 16:00:00,89.0,30.0,30.04,WNW,296,14.0,21.0,12,-99.99,,,-99.99,938.000000,,2013-06-30 22:00:00,
2013-06-30 16:53:00,89.0,30.0,30.04,WNW,296,14.0,21.0,12,-99.99,,,-99.99,938.000000,,2013-06-30 22:53:00,
2013-06-30 17:00:00,88.0,27.0,30.02,WNW,299,14.0,-999.0,11,-99.99,,,-99.99,729.099976,,2013-06-30 23:00:00,
2013-06-30 18:00:00,86.0,31.0,30.01,WNW,302,14.0,24.0,14,-99.99,,,-99.99,428.200012,,2013-07-01 00:00:00,
2013-06-30 18:52:00,86.0,31.0,30.01,WNW,302,14.0,24.0,14,-99.99,,,-99.99,428.200012,,2013-07-01 00:52:00,
2013-06-30 19:00:00,86.0,31.0,30.02,NW,306,10.0,25.0,14,-99.99,,,-99.99,308.100006,,2013-07-01 01:00:00,
2013-06-30 19:52:00,86.0,31.0,30.02,NW,306,10.0,25.0,14,-99.99,,,-99.99,308.100006,,2013-07-01 01:52:00,
2013-06-30 20:00:00,83.0,31.0,30.03,NW,326,8.0,17.0,15,-99.99,,,-99.99,115.400002,,2013-07-01 02:00:00,
2013-06-30 20:54:00,83.0,31.0,30.03,NW,326,8.0,17.0,15,-99.99,,,-99.99,115.400002,,2013-07-01 02:54:00,
2013-06-30 21:00:00,78.0,31.0,30.04,NNW,334,6.0,14.0,18,-99.99,,,-99.99,14.450000,,2013-07-01 03:00:00,
2013-06-30 22:00:00,76.0,31.0,30.06,North,4,7.0,10.0,19,-99.99,,,-99.99,0.220000,,2013-07-01 04:00:00,
2013-06-30 22:53:00,76.0,31.0,30.06,North,4,7.0,10.0,19,-99.99,,,-99.99,0.220000,,2013-07-01 04:53:00,
2013-06-30 23:00:00,77.0,31.0,30.08,North,7,9.0,12.0,19,-99.99,,,-99.99,0.060000,,2013-07-01 05:00:00,